createdAt,value
2022-12-23T00:00:18.989Z,6.25
2022-12-23T00:01:18.950Z,6.23
2022-12-23T00:02:19.016Z,6.21
2022-12-23T00:03:19.055Z,6.19
2022-12-23T00:04:19.015Z,6.18
2022-12-23T00:05:18.969Z,6.18
2022-12-23T00:06:18.910Z,6.18
2022-12-23T00:07:18.922Z,6.19
2022-12-23T00:08:18.903Z,6.20
2022-12-23T00:09:18.889Z,6.21
2022-12-23T00:10:18.861Z,6.20
2022-12-23T00:11:18.860Z,6.21
2022-12-23T00:12:18.949Z,6.23
2022-12-23T00:13:18.962Z,6.24
2022-12-23T00:14:21.823Z,6.25
2022-12-23T00:15:18.818Z,6.26
2022-12-23T00:16:18.865Z,6.27
2022-12-23T00:17:22.539Z,6.28
2022-12-23T00:18:18.817Z,6.28
2022-12-23T00:19:18.768Z,6.28
2022-12-23T00:20:18.788Z,6.29
2022-12-23T00:21:18.770Z,6.29
2022-12-23T00:22:18.739Z,6.30
2022-12-23T00:23:18.887Z,6.30
2022-12-23T00:24:18.715Z,6.31
2022-12-23T00:25:18.727Z,6.31
2022-12-23T00:26:18.706Z,6.30
2022-12-23T00:27:18.741Z,6.31
2022-12-23T00:28:18.715Z,6.33
2022-12-23T00:29:18.680Z,6.33
2022-12-23T00:30:18.877Z,6.33
2022-12-23T00:31:18.953Z,6.32
2022-12-23T00:32:18.700Z,6.31
2022-12-23T00:33:18.715Z,6.31
2022-12-23T00:34:20.147Z,6.31
2022-12-23T00:35:18.684Z,6.31
2022-12-23T00:36:18.830Z,6.32
2022-12-23T00:37:18.597Z,6.33
2022-12-23T00:38:18.648Z,6.35
2022-12-23T00:39:18.619Z,6.36
2022-12-23T00:40:18.878Z,6.37
2022-12-23T00:41:18.608Z,6.37
2022-12-23T00:42:18.585Z,6.37
2022-12-23T00:43:18.563Z,6.36
2022-12-23T00:44:18.572Z,6.35
2022-12-23T00:45:18.538Z,6.34
2022-12-23T00:46:18.675Z,6.34
2022-12-23T00:47:18.661Z,6.34
2022-12-23T00:48:18.554Z,6.35
2022-12-23T00:49:18.547Z,6.35
2022-12-23T00:50:18.498Z,6.36
2022-12-23T00:51:18.514Z,6.37
2022-12-23T00:52:18.584Z,6.39
2022-12-23T00:53:18.518Z,6.40
2022-12-23T00:54:18.507Z,6.39
2022-12-23T00:55:18.554Z,6.39
2022-12-23T00:56:18.399Z,6.39
2022-12-23T00:57:18.389Z,6.38
2022-12-23T00:58:18.382Z,6.37
2022-12-23T00:59:18.556Z,6.37
2022-12-23T01:00:18.579Z,6.38
2022-12-23T01:01:18.424Z,6.39
2022-12-23T01:02:18.504Z,6.39
2022-12-23T01:03:18.560Z,6.40
2022-12-23T01:04:18.363Z,6.40
2022-12-23T01:05:18.324Z,6.40
2022-12-23T01:06:18.335Z,6.40
2022-12-23T01:07:18.328Z,6.40
2022-12-23T01:08:18.278Z,6.41
2022-12-23T01:09:18.305Z,6.42
2022-12-23T01:10:18.296Z,6.43
2022-12-23T01:11:18.291Z,6.44
2022-12-23T01:12:18.253Z,6.44
2022-12-23T01:13:18.288Z,6.45
2022-12-23T01:14:18.288Z,6.46
2022-12-23T01:15:18.220Z,6.47
2022-12-23T01:16:18.288Z,6.47
2022-12-23T01:17:18.237Z,6.47
2022-12-23T01:18:18.194Z,6.48
2022-12-23T01:19:18.224Z,6.51
2022-12-23T01:20:18.363Z,6.54
2022-12-23T01:21:18.147Z,6.54
2022-12-23T01:22:18.147Z,6.55
2022-12-23T01:23:18.140Z,6.55
2022-12-23T01:24:18.186Z,6.55
2022-12-23T01:25:18.154Z,6.56
2022-12-23T01:26:18.118Z,6.56
2022-12-23T01:27:18.102Z,6.55
2022-12-23T01:28:18.083Z,6.56
2022-12-23T01:29:18.115Z,6.57
2022-12-23T01:30:18.082Z,6.58
2022-12-23T01:31:18.125Z,6.59
2022-12-23T01:32:18.114Z,6.60
2022-12-23T01:33:18.048Z,6.61
2022-12-23T01:34:18.059Z,6.63
2022-12-23T01:35:18.019Z,6.65
2022-12-23T01:36:18.116Z,6.66
2022-12-23T01:37:18.016Z,6.67
2022-12-23T01:38:18.025Z,6.66
2022-12-23T01:39:18.012Z,6.66
2022-12-23T01:40:17.981Z,6.66
2022-12-23T01:41:17.978Z,6.65
2022-12-23T01:42:17.944Z,6.65
2022-12-23T01:43:17.955Z,6.66
2022-12-23T01:44:17.954Z,6.66
2022-12-23T01:45:17.932Z,6.67
2022-12-23T01:46:17.953Z,6.67
2022-12-23T01:47:17.925Z,6.66
2022-12-23T01:48:17.958Z,6.67
2022-12-23T01:49:17.877Z,6.67
2022-12-23T01:50:17.889Z,6.68
2022-12-23T01:51:17.881Z,6.68
2022-12-23T01:52:17.875Z,6.68
2022-12-23T01:53:17.835Z,6.68
2022-12-23T01:54:18.000Z,6.68
2022-12-23T01:55:17.867Z,6.68
2022-12-23T01:56:17.823Z,6.68
2022-12-23T01:57:17.817Z,6.67
2022-12-23T01:58:17.789Z,6.66
2022-12-23T01:59:17.778Z,6.66
2022-12-23T02:00:17.815Z,6.66
2022-12-23T02:01:17.790Z,6.66
2022-12-23T02:02:18.021Z,6.66
2022-12-23T02:03:17.933Z,6.65
2022-12-23T02:04:17.743Z,6.66
2022-12-23T02:05:17.747Z,6.68
2022-12-23T02:06:17.730Z,6.69
2022-12-23T02:07:17.732Z,6.69
2022-12-23T02:08:17.691Z,6.69
2022-12-23T02:09:17.751Z,6.68
2022-12-23T02:10:17.691Z,6.68
2022-12-23T02:11:17.692Z,6.67
2022-12-23T02:12:17.657Z,6.66
2022-12-23T02:13:17.691Z,6.66
2022-12-23T02:14:17.706Z,6.66
2022-12-23T02:15:17.617Z,6.66
2022-12-23T02:16:17.695Z,6.66
2022-12-23T02:17:17.623Z,6.67
2022-12-23T02:18:17.631Z,6.68
2022-12-23T02:19:17.609Z,6.69
2022-12-23T02:20:17.585Z,6.69
2022-12-23T02:21:17.656Z,6.69
2022-12-23T02:22:17.568Z,6.70
2022-12-23T02:23:17.550Z,6.71
2022-12-23T02:24:17.636Z,6.72
2022-12-23T02:25:17.525Z,6.72
2022-12-23T02:26:17.531Z,6.72
2022-12-23T02:27:17.527Z,6.72
2022-12-23T02:28:17.800Z,6.72
2022-12-23T02:29:17.535Z,6.72
2022-12-23T02:30:17.481Z,6.73
2022-12-23T02:31:17.544Z,6.74
2022-12-23T02:32:17.484Z,6.74
2022-12-23T02:33:17.437Z,6.74
2022-12-23T02:34:17.478Z,6.74
2022-12-23T02:35:17.446Z,6.74
2022-12-23T02:36:17.423Z,6.74
2022-12-23T02:37:17.417Z,6.75
2022-12-23T02:38:17.394Z,6.75
2022-12-23T02:39:17.378Z,6.75
2022-12-23T02:40:17.410Z,6.76
2022-12-23T02:41:17.357Z,6.77
2022-12-23T02:42:17.358Z,6.77
2022-12-23T02:43:17.342Z,6.77
2022-12-23T02:44:17.370Z,6.77
2022-12-23T02:45:17.328Z,6.77
2022-12-23T02:46:17.398Z,6.76
2022-12-23T02:47:17.363Z,6.76
2022-12-23T02:48:17.300Z,6.76
2022-12-23T02:49:17.335Z,6.76
2022-12-23T02:50:17.288Z,6.77
2022-12-23T02:51:17.316Z,6.78
2022-12-23T02:52:17.292Z,6.79
2022-12-23T02:53:17.335Z,6.80
2022-12-23T02:54:17.233Z,6.81
2022-12-23T02:55:17.239Z,6.82
2022-12-23T02:56:17.241Z,6.82
2022-12-23T02:57:17.226Z,6.83
2022-12-23T02:58:17.229Z,6.85
2022-12-23T02:59:17.198Z,6.86
2022-12-23T03:00:17.170Z,6.87
2022-12-23T03:01:17.237Z,6.88
2022-12-23T03:02:17.426Z,6.88
2022-12-23T03:03:17.349Z,6.89
2022-12-23T03:04:17.136Z,6.90
2022-12-23T03:05:17.126Z,6.91
2022-12-23T03:06:17.158Z,6.92
2022-12-23T03:07:18.774Z,6.92
2022-12-23T03:08:17.121Z,6.93
2022-12-23T03:09:17.091Z,6.93
2022-12-23T03:10:17.094Z,6.93
2022-12-23T03:11:17.134Z,6.93
2022-12-23T03:12:17.119Z,6.93
2022-12-23T03:13:17.104Z,6.93
2022-12-23T03:14:17.108Z,6.93
2022-12-23T03:15:17.068Z,6.94
2022-12-23T03:16:17.136Z,6.95
2022-12-23T03:17:17.018Z,6.97
2022-12-23T03:18:17.036Z,6.99
2022-12-23T03:19:17.057Z,7.00
2022-12-23T03:20:17.013Z,7.01
2022-12-23T03:21:17.119Z,7.01
2022-12-23T03:22:16.980Z,7.01
2022-12-23T03:23:16.961Z,7.01
2022-12-23T03:24:17.264Z,7.02
2022-12-23T03:25:16.984Z,7.02
2022-12-23T03:26:16.920Z,7.02
2022-12-23T03:27:16.921Z,7.02
2022-12-23T03:28:16.916Z,7.02
2022-12-23T03:29:16.902Z,7.02
2022-12-23T03:30:16.917Z,7.02
2022-12-23T03:31:17.002Z,7.02
2022-12-23T03:32:16.881Z,7.03
2022-12-23T03:33:16.882Z,7.04
2022-12-23T03:34:16.851Z,7.04
2022-12-23T03:35:16.902Z,7.05
2022-12-23T03:36:16.830Z,7.05
2022-12-23T03:37:16.840Z,7.06
2022-12-23T03:38:16.820Z,7.07
2022-12-23T03:39:16.804Z,7.07
2022-12-23T03:40:16.787Z,7.07
2022-12-23T03:41:16.784Z,7.07
2022-12-23T03:42:16.777Z,7.09
2022-12-23T03:43:16.771Z,7.10
2022-12-23T03:44:16.782Z,7.10
2022-12-23T03:45:40.371Z,7.11
2022-12-23T03:46:16.781Z,7.12
2022-12-23T03:47:16.739Z,7.13
2022-12-23T03:48:16.721Z,7.14
2022-12-23T03:49:16.694Z,7.16
2022-12-23T03:50:16.742Z,7.16
2022-12-23T03:51:16.691Z,7.16
2022-12-23T03:52:21.110Z,7.17
2022-12-23T03:53:16.685Z,7.17
2022-12-23T03:54:16.662Z,7.17
2022-12-23T03:55:16.624Z,7.18
2022-12-23T03:56:16.634Z,7.19
2022-12-23T03:57:16.728Z,7.21
2022-12-23T03:58:16.601Z,7.22
2022-12-23T03:59:16.612Z,7.22
2022-12-23T04:00:16.625Z,7.23
2022-12-23T04:01:17.947Z,7.24
2022-12-23T04:02:16.726Z,7.24
2022-12-23T04:03:16.574Z,7.25
2022-12-23T04:04:16.613Z,7.25
2022-12-23T04:05:16.541Z,7.25
2022-12-23T04:06:16.544Z,7.26
2022-12-23T04:07:16.541Z,7.26
2022-12-23T04:08:16.541Z,7.27
2022-12-23T04:09:21.684Z,7.28
2022-12-23T04:10:16.497Z,7.28
2022-12-23T04:11:16.498Z,7.28
2022-12-23T04:12:16.461Z,7.28
2022-12-23T04:13:16.468Z,7.28
2022-12-23T04:14:16.451Z,7.29
2022-12-23T04:15:16.448Z,7.30
2022-12-23T04:16:16.495Z,7.31
2022-12-23T04:17:16.484Z,7.32
2022-12-23T04:18:16.542Z,7.33
2022-12-23T04:19:16.459Z,7.34
2022-12-23T04:20:16.388Z,7.35
2022-12-23T04:21:16.406Z,7.35
2022-12-23T04:22:16.385Z,7.36
2022-12-23T04:23:16.415Z,7.37
2022-12-23T04:24:16.369Z,7.37
2022-12-23T04:25:16.359Z,7.36
2022-12-23T04:26:16.332Z,7.35
2022-12-23T04:27:16.312Z,7.36
2022-12-23T04:28:16.303Z,7.36
2022-12-23T04:29:16.347Z,7.37
2022-12-23T04:30:16.302Z,7.37
2022-12-23T04:31:16.364Z,7.38
2022-12-23T04:32:16.301Z,7.39
2022-12-23T04:33:16.271Z,7.40
2022-12-23T04:34:16.267Z,7.40
2022-12-23T04:35:16.237Z,7.41
2022-12-23T04:36:16.280Z,7.41
2022-12-23T04:37:16.240Z,7.42
2022-12-23T04:38:16.215Z,7.43
2022-12-23T04:39:16.190Z,7.42
2022-12-23T04:40:16.188Z,7.41
2022-12-23T04:41:16.199Z,7.40
2022-12-23T04:42:16.165Z,7.38
2022-12-23T04:43:16.255Z,7.37
2022-12-23T04:44:16.151Z,7.37
2022-12-23T04:45:16.146Z,7.37
2022-12-23T04:46:16.205Z,7.37
2022-12-23T04:47:16.125Z,7.37
2022-12-23T04:48:16.168Z,7.37
2022-12-23T04:49:16.229Z,7.38
2022-12-23T04:50:16.121Z,7.39
2022-12-23T04:51:16.134Z,7.40
2022-12-23T04:52:16.067Z,7.41
2022-12-23T04:53:16.163Z,7.43
2022-12-23T04:54:16.054Z,7.44
2022-12-23T04:55:16.057Z,7.45
2022-12-23T04:56:16.136Z,7.45
2022-12-23T04:57:16.029Z,7.46
2022-12-23T04:58:16.038Z,7.47
2022-12-23T04:59:16.022Z,7.47
2022-12-23T05:00:16.000Z,7.47
2022-12-23T05:01:16.065Z,7.47
2022-12-23T05:02:16.207Z,7.47
2022-12-23T05:03:16.156Z,7.47
2022-12-23T05:04:16.000Z,7.47
2022-12-23T05:05:15.973Z,7.47
2022-12-23T05:06:15.943Z,7.47
2022-12-23T05:07:15.939Z,7.46
2022-12-23T05:08:16.072Z,7.45
2022-12-23T05:09:16.029Z,7.44
2022-12-23T05:10:15.925Z,7.44
2022-12-23T05:11:15.903Z,7.44
2022-12-23T05:12:15.868Z,7.45
2022-12-23T05:13:15.889Z,7.45
2022-12-23T05:14:15.907Z,7.45
2022-12-23T05:15:15.882Z,7.44
2022-12-23T05:16:15.902Z,7.43
2022-12-23T05:17:15.866Z,7.42
2022-12-23T05:18:15.814Z,7.41
2022-12-23T05:19:15.814Z,7.41
2022-12-23T05:20:15.795Z,7.41
2022-12-23T05:21:15.803Z,7.41
2022-12-23T05:22:15.771Z,7.41
2022-12-23T05:23:15.868Z,7.40
2022-12-23T05:24:15.791Z,7.40
2022-12-23T05:25:15.754Z,7.39
2022-12-23T05:26:15.788Z,7.40
2022-12-23T05:27:15.729Z,7.40
2022-12-23T05:28:15.718Z,7.40
2022-12-23T05:29:15.737Z,7.39
2022-12-23T05:30:15.732Z,7.39
2022-12-23T05:31:15.730Z,7.39
2022-12-23T05:32:15.721Z,7.39
2022-12-23T05:33:15.904Z,7.39
2022-12-23T05:34:15.669Z,7.40
2022-12-23T05:35:15.655Z,7.40
2022-12-23T05:36:15.673Z,7.43
2022-12-23T05:37:15.657Z,7.45
2022-12-23T05:38:15.627Z,7.47
2022-12-23T05:39:15.644Z,7.48
2022-12-23T05:40:21.607Z,7.49
2022-12-23T05:41:15.593Z,7.50
2022-12-23T05:42:15.584Z,7.51
2022-12-23T05:43:15.576Z,7.52
2022-12-23T05:44:15.564Z,7.53
2022-12-23T05:45:15.579Z,7.53
2022-12-23T05:46:17.715Z,7.52
2022-12-23T05:47:15.564Z,7.52
2022-12-23T05:48:15.530Z,7.53
2022-12-23T05:49:15.589Z,7.53
2022-12-23T05:50:15.532Z,7.52
2022-12-23T05:51:15.483Z,7.51
2022-12-23T05:52:15.574Z,7.51
2022-12-23T05:53:15.479Z,7.51
2022-12-23T05:54:15.452Z,7.51
2022-12-23T05:55:15.536Z,7.52
2022-12-23T05:56:15.428Z,7.52
2022-12-23T05:57:15.445Z,7.52
2022-12-23T05:58:15.471Z,7.53
2022-12-23T05:59:15.469Z,7.53
2022-12-23T06:00:15.401Z,7.54
2022-12-23T06:01:15.401Z,7.54
2022-12-23T06:02:15.576Z,7.54
2022-12-23T06:03:15.624Z,7.53
2022-12-23T06:04:15.429Z,7.52
2022-12-23T06:05:15.388Z,7.51
2022-12-23T06:06:15.364Z,7.51
2022-12-23T06:07:15.346Z,7.50
2022-12-23T06:08:15.337Z,7.48
2022-12-23T06:09:15.323Z,7.46
2022-12-23T06:10:15.309Z,7.43
2022-12-23T06:11:15.287Z,7.39
2022-12-23T06:12:15.296Z,7.35
2022-12-23T06:13:15.321Z,7.32
2022-12-23T06:14:15.324Z,7.29
2022-12-23T06:15:15.268Z,7.26
2022-12-23T06:16:15.306Z,7.25
2022-12-23T06:17:15.253Z,7.24
2022-12-23T06:18:15.258Z,7.23
2022-12-23T06:19:15.272Z,7.21
2022-12-23T06:20:20.300Z,7.20
2022-12-23T06:21:15.218Z,7.19
2022-12-23T06:22:15.262Z,7.19
2022-12-23T06:23:15.206Z,7.18
2022-12-23T06:24:15.168Z,7.17
2022-12-23T06:25:15.170Z,7.15
2022-12-23T06:26:15.176Z,7.14
2022-12-23T06:27:15.142Z,7.13
2022-12-23T06:28:15.169Z,7.12
2022-12-23T06:29:15.123Z,7.11
2022-12-23T06:30:15.120Z,7.09
2022-12-23T06:31:15.162Z,7.08
2022-12-23T06:32:15.247Z,7.08
2022-12-23T06:33:15.072Z,7.08
2022-12-23T06:34:15.065Z,7.10
2022-12-23T06:35:15.026Z,7.12
2022-12-23T06:36:14.988Z,7.13
2022-12-23T06:37:15.020Z,7.14
2022-12-23T06:38:15.018Z,7.15
2022-12-23T06:39:15.032Z,7.17
2022-12-23T06:40:15.013Z,7.19
2022-12-23T06:41:14.968Z,7.20
2022-12-23T06:42:14.975Z,7.21
2022-12-23T06:43:14.960Z,7.22
2022-12-23T06:44:14.919Z,7.24
2022-12-23T06:45:14.929Z,7.28
2022-12-23T06:46:14.965Z,7.30
2022-12-23T06:47:14.903Z,7.32
2022-12-23T06:48:14.897Z,7.32
2022-12-23T06:49:14.865Z,7.32
2022-12-23T06:50:14.912Z,7.33
2022-12-23T06:51:14.910Z,7.35
2022-12-23T06:52:14.827Z,7.38
2022-12-23T06:53:14.827Z,7.40
2022-12-23T06:54:14.812Z,7.42
2022-12-23T06:55:14.837Z,7.43
2022-12-23T06:56:14.816Z,7.44
2022-12-23T06:57:14.902Z,7.46
2022-12-23T06:58:14.790Z,7.48
2022-12-23T06:59:14.780Z,7.50
2022-12-23T07:00:14.766Z,7.51
2022-12-23T07:01:14.762Z,7.52
2022-12-23T07:02:14.915Z,7.53
2022-12-23T07:03:14.790Z,7.54
2022-12-23T07:04:14.717Z,7.56
2022-12-23T07:05:14.719Z,7.57
2022-12-23T07:06:14.713Z,7.58
2022-12-23T07:07:14.684Z,7.58
2022-12-23T07:08:14.690Z,7.59
2022-12-23T07:09:14.667Z,7.60
2022-12-23T07:10:14.732Z,7.62
2022-12-23T07:11:14.696Z,7.63
2022-12-23T07:12:14.646Z,7.63
2022-12-23T07:13:14.661Z,7.64
2022-12-23T07:14:14.634Z,7.64
2022-12-23T07:15:14.616Z,7.63
2022-12-23T07:16:14.758Z,7.63
2022-12-23T07:17:14.583Z,7.63
2022-12-23T07:18:14.610Z,7.62
2022-12-23T07:19:14.568Z,7.61
2022-12-23T07:20:14.561Z,7.60
2022-12-23T07:21:22.927Z,7.59
2022-12-23T07:22:14.558Z,7.59
2022-12-23T07:23:14.521Z,7.59
2022-12-23T07:24:14.509Z,7.59
2022-12-23T07:25:14.600Z,7.59
2022-12-23T07:26:14.500Z,7.60
2022-12-23T07:27:14.536Z,7.61
2022-12-23T07:28:14.476Z,7.62
2022-12-23T07:29:14.482Z,7.62
2022-12-23T07:30:14.488Z,7.63
2022-12-23T07:31:14.493Z,7.64
2022-12-23T07:32:14.453Z,7.65
2022-12-23T07:33:14.475Z,7.66
2022-12-23T07:34:14.451Z,7.67
2022-12-23T07:35:14.407Z,7.68
2022-12-23T07:36:14.418Z,7.68
2022-12-23T07:37:14.406Z,7.68
2022-12-23T07:38:14.399Z,7.69
2022-12-23T07:39:14.408Z,7.70
2022-12-23T07:40:14.519Z,7.70
2022-12-23T07:41:14.377Z,7.70
2022-12-23T07:42:43.689Z,7.70
2022-12-23T07:43:14.358Z,7.71
2022-12-23T07:44:14.363Z,7.73
2022-12-23T07:45:14.409Z,7.73
2022-12-23T07:46:14.384Z,7.73
2022-12-23T07:47:14.483Z,7.73
2022-12-23T07:48:14.268Z,7.74
2022-12-23T07:49:14.389Z,7.74
2022-12-23T07:50:14.431Z,7.75
2022-12-23T07:51:14.263Z,7.76
2022-12-23T07:52:14.252Z,7.78
2022-12-23T07:53:14.285Z,7.79
2022-12-23T07:54:14.256Z,7.80
2022-12-23T07:55:14.227Z,7.80
2022-12-23T07:56:14.192Z,7.80
2022-12-23T07:57:14.241Z,7.80
2022-12-23T07:58:14.181Z,7.81
2022-12-23T07:59:14.233Z,7.81
2022-12-23T08:00:14.227Z,7.82
2022-12-23T08:01:14.230Z,7.83
2022-12-23T08:02:14.307Z,7.83
2022-12-23T08:03:14.360Z,7.84
2022-12-23T08:04:14.181Z,7.85
2022-12-23T08:05:14.254Z,7.87
2022-12-23T08:06:14.304Z,7.88
2022-12-23T08:07:14.166Z,7.90
2022-12-23T08:08:14.079Z,7.91
2022-12-23T08:09:14.150Z,7.92
2022-12-23T08:10:14.083Z,7.93
2022-12-23T08:11:14.093Z,7.95
2022-12-23T08:12:14.051Z,7.96
2022-12-23T08:13:14.061Z,7.97
2022-12-23T08:14:14.028Z,7.98
2022-12-23T08:15:14.055Z,8.00
2022-12-23T08:16:14.039Z,8.01
2022-12-23T08:17:14.055Z,8.02
2022-12-23T08:18:13.973Z,8.04
2022-12-23T08:19:14.026Z,8.05
2022-12-23T08:20:13.980Z,8.05
2022-12-23T08:21:13.998Z,8.05
2022-12-23T08:22:13.956Z,8.04
2022-12-23T08:23:13.947Z,8.05
2022-12-23T08:24:13.990Z,8.05
2022-12-23T08:25:13.932Z,8.07
2022-12-23T08:26:13.946Z,8.08
2022-12-23T08:27:13.975Z,8.09
2022-12-23T08:28:13.950Z,8.10
2022-12-23T08:29:13.905Z,8.11
2022-12-23T08:30:13.855Z,8.12
2022-12-23T08:31:14.016Z,8.13
2022-12-23T08:32:13.892Z,8.15
2022-12-23T08:33:14.214Z,8.16
2022-12-23T08:34:13.839Z,8.17
2022-12-23T08:35:13.959Z,8.17
2022-12-23T08:36:17.595Z,8.17
2022-12-23T08:37:13.854Z,8.17
2022-12-23T08:38:13.778Z,8.17
2022-12-23T08:39:13.818Z,8.17
2022-12-23T08:40:13.838Z,8.19
2022-12-23T08:41:13.788Z,8.20
2022-12-23T08:42:13.749Z,8.22
2022-12-23T08:43:13.810Z,8.23
2022-12-23T08:44:13.740Z,8.24
2022-12-23T08:45:13.767Z,8.24
2022-12-23T08:46:13.803Z,8.23
2022-12-23T08:47:13.700Z,8.24
2022-12-23T08:48:13.716Z,8.24
2022-12-23T08:49:13.678Z,8.26
2022-12-23T08:50:13.704Z,8.27
2022-12-23T08:51:13.649Z,8.29
2022-12-23T08:52:13.674Z,8.30
2022-12-23T08:53:13.642Z,8.32
2022-12-23T08:54:13.613Z,8.34
2022-12-23T08:55:13.663Z,8.34
2022-12-23T08:56:13.619Z,8.35
2022-12-23T08:57:13.793Z,8.36
2022-12-23T08:58:13.592Z,8.37
2022-12-23T08:59:18.730Z,8.37
2022-12-23T09:00:13.590Z,8.38
2022-12-23T09:01:13.610Z,8.37
2022-12-23T09:02:13.721Z,8.37
2022-12-23T09:03:13.682Z,8.37
2022-12-23T09:04:13.515Z,8.37
2022-12-23T09:05:13.504Z,8.38
2022-12-23T09:06:13.493Z,8.38
2022-12-23T09:07:13.486Z,8.38
2022-12-23T09:08:13.499Z,8.39
2022-12-23T09:09:13.471Z,8.39
2022-12-23T09:10:13.522Z,8.40
2022-12-23T09:11:13.459Z,8.41
2022-12-23T09:12:13.479Z,8.42
2022-12-23T09:13:19.983Z,8.42
2022-12-23T09:14:13.436Z,8.42
2022-12-23T09:15:13.419Z,8.42
2022-12-23T09:16:13.476Z,8.42
2022-12-23T09:17:13.399Z,8.41
2022-12-23T09:18:13.414Z,8.42
2022-12-23T09:19:13.363Z,8.42
2022-12-23T09:20:13.376Z,8.43
2022-12-23T09:21:13.358Z,8.45
2022-12-23T09:22:13.395Z,8.45
2022-12-23T09:23:13.326Z,8.45
2022-12-23T09:24:13.325Z,8.46
2022-12-23T09:25:13.366Z,8.46
2022-12-23T09:26:13.329Z,8.47
2022-12-23T09:27:13.360Z,8.49
2022-12-23T09:28:13.277Z,8.50
2022-12-23T09:29:13.304Z,8.50
2022-12-23T09:30:13.292Z,8.51
2022-12-23T09:31:13.573Z,8.52
2022-12-23T09:32:13.273Z,8.52
2022-12-23T09:33:13.309Z,8.52
2022-12-23T09:34:13.214Z,8.54
2022-12-23T09:35:13.215Z,8.54
2022-12-23T09:36:14.092Z,8.54
2022-12-23T09:37:13.186Z,8.54
2022-12-23T09:38:13.197Z,8.55
2022-12-23T09:39:13.176Z,8.56
2022-12-23T09:40:13.175Z,8.58
2022-12-23T09:41:13.157Z,8.59
2022-12-23T09:42:13.169Z,8.60
2022-12-23T09:43:13.151Z,8.60
2022-12-23T09:44:13.136Z,8.60
2022-12-23T09:45:13.155Z,8.60
2022-12-23T09:46:13.293Z,8.60
2022-12-23T09:47:13.110Z,8.60
2022-12-23T09:48:13.097Z,8.61
2022-12-23T09:49:13.095Z,8.61
2022-12-23T09:50:13.080Z,8.61
2022-12-23T09:51:13.099Z,8.62
2022-12-23T09:52:13.099Z,8.62
2022-12-23T09:53:13.071Z,8.62
2022-12-23T09:54:16.888Z,8.62
2022-12-23T09:55:13.036Z,8.63
2022-12-23T09:56:13.028Z,8.64
2022-12-23T09:57:13.017Z,8.65
2022-12-23T09:58:13.020Z,8.65
2022-12-23T09:59:12.997Z,8.66
2022-12-23T10:00:12.982Z,8.67
2022-12-23T10:01:12.962Z,8.69
2022-12-23T10:02:13.033Z,8.70
2022-12-23T10:03:13.265Z,8.71
2022-12-23T10:04:12.978Z,8.71
2022-12-23T10:05:12.999Z,8.71
2022-12-23T10:06:12.984Z,8.72
2022-12-23T10:07:12.973Z,8.73
2022-12-23T10:08:12.932Z,8.74
2022-12-23T10:09:12.958Z,8.76
2022-12-23T10:10:12.867Z,8.77
2022-12-23T10:11:12.874Z,8.78
2022-12-23T10:12:12.862Z,8.79
2022-12-23T10:13:12.852Z,8.80
2022-12-23T10:14:12.825Z,8.80
2022-12-23T10:15:12.812Z,8.80
2022-12-23T10:16:13.890Z,8.80
2022-12-23T10:17:12.960Z,8.81
2022-12-23T10:18:12.824Z,8.82
2022-12-23T10:19:12.788Z,8.83
2022-12-23T10:20:12.775Z,8.83
2022-12-23T10:21:12.798Z,8.85
2022-12-23T10:22:12.789Z,8.86
2022-12-23T10:23:12.736Z,8.88
2022-12-23T10:24:12.794Z,8.89
2022-12-23T10:25:12.755Z,8.89
2022-12-23T10:26:12.731Z,8.89
2022-12-23T10:27:12.738Z,8.91
2022-12-23T10:28:12.739Z,8.92
2022-12-23T10:29:18.383Z,8.94
2022-12-23T10:30:42.028Z,8.96
2022-12-23T10:31:41.893Z,8.97
2022-12-23T10:32:12.695Z,8.98
2022-12-23T10:33:12.720Z,8.99
2022-12-23T10:34:12.629Z,8.99
2022-12-23T10:35:12.636Z,9.00
2022-12-23T10:36:12.734Z,9.00
2022-12-23T10:37:12.678Z,9.00
2022-12-23T10:38:12.681Z,9.01
2022-12-23T10:39:12.568Z,9.03
2022-12-23T10:40:12.615Z,9.05
2022-12-23T10:41:12.602Z,9.06
2022-12-23T10:42:12.624Z,9.07
2022-12-23T10:43:12.532Z,9.07
2022-12-23T10:44:12.561Z,9.08
2022-12-23T10:45:12.512Z,9.09
2022-12-23T10:46:12.575Z,9.11
2022-12-23T10:47:12.660Z,9.13
2022-12-23T10:48:14.423Z,9.15
2022-12-23T10:49:12.484Z,9.18
2022-12-23T10:50:12.474Z,9.19
2022-12-23T10:51:12.482Z,9.21
2022-12-23T10:52:12.452Z,9.23
2022-12-23T10:53:12.456Z,9.24
2022-12-23T10:54:12.445Z,9.27
2022-12-23T10:55:12.428Z,9.30
2022-12-23T10:56:12.412Z,9.33
2022-12-23T10:57:12.431Z,9.36
2022-12-23T10:58:12.385Z,9.39
2022-12-23T10:59:12.425Z,9.41
2022-12-23T11:00:12.443Z,9.42
2022-12-23T11:01:18.873Z,9.42
2022-12-23T11:02:12.588Z,9.42
2022-12-23T11:03:12.440Z,9.43
2022-12-23T11:04:12.352Z,9.45
2022-12-23T11:05:12.318Z,9.48
2022-12-23T11:06:12.332Z,9.49
2022-12-23T11:07:42.773Z,9.50
2022-12-23T11:08:12.350Z,9.52
2022-12-23T11:09:12.298Z,9.52
2022-12-23T11:10:12.297Z,9.53
2022-12-23T11:11:12.301Z,9.54
2022-12-23T11:12:12.266Z,9.56
2022-12-23T11:13:12.234Z,9.57
2022-12-23T11:14:12.350Z,9.59
2022-12-23T11:15:12.331Z,9.61
2022-12-23T11:16:12.304Z,9.63
2022-12-23T11:17:12.204Z,9.64
2022-12-23T11:18:12.246Z,9.66
2022-12-23T11:19:12.202Z,9.68
2022-12-23T11:20:12.247Z,9.68
2022-12-23T11:21:12.163Z,9.68
2022-12-23T11:22:12.245Z,9.68
2022-12-23T11:23:12.180Z,9.69
2022-12-23T11:24:12.127Z,9.69
2022-12-23T11:25:12.145Z,9.70
2022-12-23T11:26:12.135Z,9.71
2022-12-23T11:27:12.113Z,9.73
2022-12-23T11:28:12.117Z,9.76
2022-12-23T11:29:12.124Z,9.78
2022-12-23T11:30:12.088Z,9.78
2022-12-23T11:31:12.460Z,9.78
2022-12-23T11:32:12.078Z,9.78
2022-12-23T11:33:12.042Z,9.77
2022-12-23T11:34:12.056Z,9.77
2022-12-23T11:35:12.026Z,9.77
2022-12-23T11:36:12.343Z,9.76
2022-12-23T11:37:12.025Z,9.76
2022-12-23T11:38:12.032Z,9.75
2022-12-23T11:39:11.986Z,9.73
2022-12-23T11:40:11.971Z,9.72
2022-12-23T11:41:12.008Z,9.71
2022-12-23T11:42:11.978Z,9.69
2022-12-23T11:43:12.075Z,9.67
2022-12-23T11:44:11.964Z,9.66
2022-12-23T11:45:11.955Z,9.65
2022-12-23T11:46:11.999Z,9.65
2022-12-23T11:47:11.929Z,9.66
2022-12-23T11:48:11.954Z,9.67
2022-12-23T11:49:11.910Z,9.68
2022-12-23T11:50:11.908Z,9.69
2022-12-23T11:51:11.867Z,9.70
2022-12-23T11:52:11.885Z,9.71
2022-12-23T11:53:11.851Z,9.70
2022-12-23T11:54:11.933Z,9.69
2022-12-23T11:55:11.831Z,9.69
2022-12-23T11:56:11.806Z,9.69
2022-12-23T11:57:11.924Z,9.69
2022-12-23T11:58:11.807Z,9.71
2022-12-23T11:59:11.788Z,9.73
2022-12-23T12:00:11.973Z,9.73
2022-12-23T12:01:11.805Z,9.74
2022-12-23T12:02:11.842Z,9.74
2022-12-23T12:03:11.799Z,9.75
2022-12-23T12:04:11.748Z,9.74
2022-12-23T12:05:11.723Z,9.74
2022-12-23T12:06:11.713Z,9.73
2022-12-23T12:07:11.741Z,9.73
2022-12-23T12:08:11.711Z,9.72
2022-12-23T12:09:11.694Z,9.71
2022-12-23T12:10:11.749Z,9.71
2022-12-23T12:11:11.658Z,9.72
2022-12-23T12:12:11.675Z,9.73
2022-12-23T12:13:11.683Z,9.74
2022-12-23T12:14:11.728Z,9.73
2022-12-23T12:15:11.659Z,9.71
2022-12-23T12:16:11.706Z,9.70
2022-12-23T12:17:11.648Z,9.68
2022-12-23T12:18:11.586Z,9.66
2022-12-23T12:19:11.628Z,9.64
2022-12-23T12:20:11.588Z,9.62
2022-12-23T12:21:11.572Z,9.61
2022-12-23T12:22:11.548Z,9.60
2022-12-23T12:23:11.554Z,9.60
2022-12-23T12:24:19.781Z,9.59
2022-12-23T12:25:11.536Z,9.58
2022-12-23T12:26:11.525Z,9.58
2022-12-23T12:27:11.540Z,9.57
2022-12-23T12:28:11.540Z,9.58
2022-12-23T12:29:11.572Z,9.59
2022-12-23T12:30:11.478Z,9.59
2022-12-23T12:31:11.585Z,9.60
2022-12-23T12:32:11.562Z,9.60
2022-12-23T12:33:11.430Z,9.60
2022-12-23T12:34:11.434Z,9.60
2022-12-23T12:35:11.431Z,9.60
2022-12-23T12:36:11.419Z,9.59
2022-12-23T12:37:11.478Z,9.59
2022-12-23T12:38:11.390Z,9.59
2022-12-23T12:39:11.422Z,9.59
2022-12-23T12:40:11.383Z,9.58
2022-12-23T12:41:11.388Z,9.58
2022-12-23T12:42:11.358Z,9.57
2022-12-23T12:43:11.354Z,9.57
2022-12-23T12:44:11.348Z,9.57
2022-12-23T12:45:11.320Z,9.57
2022-12-23T12:46:11.405Z,9.57
2022-12-23T12:47:36.098Z,9.56
2022-12-23T12:48:18.215Z,9.55
2022-12-23T12:49:11.297Z,9.54
2022-12-23T12:50:11.296Z,9.54
2022-12-23T12:51:11.245Z,9.53
2022-12-23T12:52:11.243Z,9.53
2022-12-23T12:53:11.275Z,9.53
2022-12-23T12:54:11.289Z,9.53
2022-12-23T12:55:11.231Z,9.53
2022-12-23T12:56:12.031Z,9.54
2022-12-23T12:57:12.017Z,9.54
2022-12-23T12:58:11.435Z,9.55
2022-12-23T12:59:11.208Z,9.55
2022-12-23T13:00:11.371Z,9.56
2022-12-23T13:01:11.190Z,9.57
2022-12-23T13:02:11.313Z,9.57
2022-12-23T13:03:11.148Z,9.57
2022-12-23T13:04:11.176Z,9.57
2022-12-23T13:05:11.142Z,9.56
2022-12-23T13:06:11.246Z,9.55
2022-12-23T13:07:11.117Z,9.54
2022-12-23T13:08:11.083Z,9.54
2022-12-23T13:09:11.089Z,9.54
2022-12-23T13:10:11.075Z,9.55
2022-12-23T13:11:11.056Z,9.55
2022-12-23T13:12:11.086Z,9.55
2022-12-23T13:13:11.049Z,9.55
2022-12-23T13:14:11.022Z,9.56
2022-12-23T13:15:11.036Z,9.56
2022-12-23T13:16:11.014Z,9.55
2022-12-23T13:17:11.010Z,9.55
2022-12-23T13:18:10.977Z,9.55